Time;durP1;ratioP1;P1;durP2;ratioP2;P2;SDS_P1;SDS_P2;PMS_P1;PMS_P2;Temp;Humidity;BMP_temperature;BMP_pressure;BME280_temperature;BME280_humidity;BME280_pressure;Samples;Min_cycle;Max_cycle;Signal;HPM_P1;HPM_P2
2023/04/04 00:02:07;;;;;;;;;;;;;;;4.26;68.03125;103203.8;;;;-73
2023/04/04 00:06:58;;;;;;;;;;;;;;;4.22;68.375;103208.4;;;;-73
2023/04/04 00:11:57;;;;;;;;;;;;;;;4.18;68.41211;103209.5;;;;-74
2023/04/04 00:16:58;;;;;;;;;;;;;;;4.1;68.28906;103202.6;;;;-73
2023/04/04 00:21:29;;;;;;;3.2;1.1;;;;;;;;;;;;;-74
2023/04/04 00:21:56;;;;;;;;;;;;;;;4.06;68.46973;103204.7;;;;-74
2023/04/04 00:26:56;;;;;;;;;;;;;;;4.05;68.46875;103199.5;;;;-74
2023/04/04 00:31:59;;;;;;;;;;;;;;;3.99;68.35938;103194.7;;;;-73
2023/04/04 00:36:57;;;;;;;;;;;;;;;3.96;68.72559;103191.5;;;;-74
2023/04/04 00:41:56;;;;;;;;;;;;;;;3.92;68.73242;103187.8;;;;-74
2023/04/04 00:46:56;;;;;;;;;;;;;;;3.85;68.87207;103182.4;;;;-74
2023/04/04 00:51:26;;;;;;;2.4;1;;;;;;;;;;;;;-74
2023/04/04 00:51:56;;;;;;;;;;;;;;;3.81;68.81152;103179;;;;-75
2023/04/04 00:56:57;;;;;;;;;;;;;;;3.75;68.61719;103180;;;;-75
2023/04/04 01:01:57;;;;;;;;;;;;;;;3.73;68.89648;103179.9;;;;-74
2023/04/04 01:06:56;;;;;;;;;;;;;;;3.68;68.94434;103185.5;;;;-74
2023/04/04 01:11:58;;;;;;;;;;;;;;;3.67;69.17383;103178.9;;;;-74
2023/04/04 01:16:57;;;;;;;;;;;;;;;3.63;68.8916;103174.5;;;;-74
2023/04/04 01:21:27;;;;;;;2.7;1.2;;;;;;;;;;;;;-73
2023/04/04 01:21:56;;;;;;;;;;;;;;;3.58;68.91699;103172.5;;;;-74
2023/04/04 01:26:57;;;;;;;;;;;;;;;3.57;69.2002;103174.5;;;;-74
2023/04/04 01:31:59;;;;;;;;;;;;;;;3.5;69.02539;103172.8;;;;-74
2023/04/04 01:37:00;;;;;;;;;;;;;;;3.44;69.04785;103185.9;;;;-74
2023/04/04 01:41:57;;;;;;;;;;;;;;;3.44;69.34277;103182;;;;-73
2023/04/04 01:46:59;;;;;;;;;;;;;;;3.4;69.3252;103180.2;;;;-73
2023/04/04 01:51:27;;;;;;;6.5;1.6;;;;;;;;;;;;;-73
2023/04/04 01:51:59;;;;;;;;;;;;;;;3.36;69.41602;103180.5;;;;-73
2023/04/04 01:56:59;;;;;;;;;;;;;;;3.31;69.53906;103175.4;;;;-73
2023/04/04 02:01:59;;;;;;;;;;;;;;;3.26;69.36816;103173.1;;;;-72
2023/04/04 02:06:59;;;;;;;;;;;;;;;3.24;69.49512;103168.4;;;;-73
2023/04/04 02:11:58;;;;;;;;;;;;;;;3.18;69.40918;103170.2;;;;-74
2023/04/04 02:16:57;;;;;;;;;;;;;;;3.15;69.6123;103169.5;;;;-73
2023/04/04 02:21:35;;;;;;;3;1.3;;;;;;;;;;;;;-73
2023/04/04 02:21:58;;;;;;;;;;;;;;;3.08;69.31738;103169.8;;;;-73
2023/04/04 02:26:58;;;;;;;;;;;;;;;3.04;69.69336;103166.6;;;;-74
2023/04/04 02:31:58;;;;;;;;;;;;;;;3.02;69.50293;103167.8;;;;-73
2023/04/04 02:36:56;;;;;;;;;;;;;;;3.04;69.8457;103164.5;;;;-73
2023/04/04 02:41:58;;;;;;;;;;;;;;;2.95;69.75586;103166.4;;;;-73
2023/04/04 02:46:58;;;;;;;;;;;;;;;2.9;69.62598;103159.8;;;;-75
2023/04/04 02:51:28;;;;;;;4.5;1.5;;;;;;;;;;;;;-74
2023/04/04 02:51:59;;;;;;;;;;;;;;;2.93;69.81543;103159.5;;;;-75
2023/04/04 02:56:58;;;;;;;;;;;;;;;2.88;69.87305;103152.5;;;;-72
2023/04/04 03:01:58;;;;;;;;;;;;;;;2.84;69.9209;103155.9;;;;-74
2023/04/04 03:06:56;;;;;;;;;;;;;;;2.76;69.87598;103158.3;;;;-73
2023/04/04 03:12:00;;;;;;;;;;;;;;;2.73;69.92578;103154.7;;;;-73
2023/04/04 03:16:56;;;;;;;;;;;;;;;2.63;70.10547;103153.3;;;;-75
2023/04/04 03:21:26;;;;;;;4.4;1.6;;;;;;;;;;;;;-73
2023/04/04 03:21:57;;;;;;;;;;;;;;;2.56;70.01758;103150.4;;;;-73
2023/04/04 03:26:56;;;;;;;;;;;;;;;2.53;69.93652;103151;;;;-74
2023/04/04 03:31:56;;;;;;;;;;;;;;;2.43;70.12793;103150.5;;;;-74
2023/04/04 03:36:58;;;;;;;;;;;;;;;2.37;70.14941;103148.5;;;;-73
2023/04/04 03:41:56;;;;;;;;;;;;;;;2.28;70.22168;103151.5;;;;-74
2023/04/04 03:46:58;;;;;;;;;;;;;;;2.16;70.12598;103152;;;;-75
2023/04/04 03:51:30;;;;;;;3.4;1.6;;;;;;;;;;;;;-73
2023/04/04 03:51:59;;;;;;;;;;;;;;;2.09;70.13672;103151.3;;;;-74
2023/04/04 03:56:58;;;;;;;;;;;;;;;2.01;69.93945;103160.6;;;;-73
2023/04/04 04:02:03;;;;;;;;;;;;;;;1.95;70.25684;103163.5;;;;-74
2023/04/04 04:06:57;;;;;;;;;;;;;;;1.79;70.2832;103160.3;;;;-74
2023/04/04 04:11:57;;;;;;;;;;;;;;;1.81;70.36328;103155.5;;;;-73
2023/04/04 04:16:56;;;;;;;;;;;;;;;1.73;70.35938;103155.7;;;;-75
2023/04/04 04:21:26;;;;;;;3.8;1.5;;;;;;;;;;;;;-74
2023/04/04 04:21:58;;;;;;;;;;;;;;;1.63;70.64844;103161.2;;;;-73
2023/04/04 04:26:58;;;;;;;;;;;;;;;1.5;70.60547;103158.5;;;;-74
2023/04/04 04:31:56;;;;;;;;;;;;;;;1.42;70.4834;103160.4;;;;-73
2023/04/04 04:36:56;;;;;;;;;;;;;;;1.37;70.65918;103154.4;;;;-73
2023/04/04 04:41:57;;;;;;;;;;;;;;;1.3;70.53906;103155.1;;;;-73
2023/04/04 04:47:00;;;;;;;;;;;;;;;1.22;70.54688;103148.4;;;;-75
2023/04/04 04:51:26;;;;;;;3.6;1.5;;;;;;;;;;;;;-73
2023/04/04 04:51:56;;;;;;;;;;;;;;;1.1;71.02832;103153.9;;;;-74
2023/04/04 04:56:57;;;;;;;;;;;;;;;1.06;70.64258;103162.3;;;;-73
2023/04/04 05:01:58;;;;;;;;;;;;;;;0.95;70.88281;103167.2;;;;-73
2023/04/04 05:06:56;;;;;;;;;;;;;;;0.91;70.83398;103177.7;;;;-75
2023/04/04 05:11:59;;;;;;;;;;;;;;;0.86;70.68359;103176.6;;;;-75
2023/04/04 05:16:56;;;;;;;;;;;;;;;0.88;70.59961;103176.3;;;;-75
2023/04/04 05:21:33;;;;;;;3.7;1.6;;;;;;;;;;;;;-75
2023/04/04 05:21:57;;;;;;;;;;;;;;;0.8;70.74902;103177.7;;;;-75
2023/04/04 05:26:57;;;;;;;;;;;;;;;0.77;70.9082;103170.5;;;;-75
2023/04/04 05:31:56;;;;;;;;;;;;;;;0.7;70.77539;103167.2;;;;-72
2023/04/04 05:36:57;;;;;;;;;;;;;;;0.72;70.83496;103174.9;;;;-74
2023/04/04 05:41:59;;;;;;;;;;;;;;;0.67;70.84668;103172.3;;;;-74
2023/04/04 05:46:59;;;;;;;;;;;;;;;0.63;70.91895;103162.4;;;;-73
2023/04/04 05:51:25;;;;;;;5.6;1.6;;;;;;;;;;;;;-75
2023/04/04 05:51:58;;;;;;;;;;;;;;;0.68;70.61133;103158.6;;;;-73
2023/04/04 05:56:56;;;;;;;;;;;;;;;0.65;70.7793;103153.3;;;;-73
2023/04/04 06:01:56;;;;;;;;;;;;;;;0.74;70.55566;103159.4;;;;-74
2023/04/04 06:06:58;;;;;;;;;;;;;;;0.8;70.6084;103161.6;;;;-73
2023/04/04 06:11:56;;;;;;;;;;;;;;;1.07;70.46875;103160.8;;;;-74
2023/04/04 06:16:56;;;;;;;;;;;;;;;1.53;70.11035;103159.1;;;;-74
2023/04/04 06:21:25;;;;;;;3.9;1.9;;;;;;;;;;;;;-73
2023/04/04 06:21:56;;;;;;;;;;;;;;;2.15;68.50293;103153.4;;;;-73
2023/04/04 06:26:59;;;;;;;;;;;;;;;2.5;67.09961;103156.4;;;;-74
2023/04/04 06:31:57;;;;;;;;;;;;;;;2.82;66.46191;103159.9;;;;-74
2023/04/04 06:36:58;;;;;;;;;;;;;;;3.07;66.22852;103164.8;;;;-73
2023/04/04 06:41:56;;;;;;;;;;;;;;;3.34;66.3125;103172.6;;;;-75
2023/04/04 06:46:56;;;;;;;;;;;;;;;3.52;66.23047;103175;;;;-74
2023/04/04 06:51:25;;;;;;;5.7;1.9;;;;;;;;;;;;;-74
2023/04/04 06:51:57;;;;;;;;;;;;;;;3.88;66.46191;103179.3;;;;-75
2023/04/04 06:56:58;;;;;;;;;;;;;;;4.21;65.42676;103177.8;;;;-74
2023/04/04 07:01:58;;;;;;;;;;;;;;;4.44;65.30957;103175;;;;-74
2023/04/04 07:06:58;;;;;;;;;;;;;;;4.69;65.03125;103178.5;;;;-74
2023/04/04 07:11:56;;;;;;;;;;;;;;;4.97;64.82031;103177;;;;-74
2023/04/04 07:16:57;;;;;;;;;;;;;;;5.25;64.86133;103182.9;;;;-73
2023/04/04 07:21:27;;;;;;;4.3;2;;;;;;;;;;;;;-72
2023/04/04 07:21:59;;;;;;;;;;;;;;;5.56;64.15137;103180.3;;;;-74
2023/04/04 07:26:58;;;;;;;;;;;;;;;6;63.95117;103175.8;;;;-72
2023/04/04 07:31:57;;;;;;;;;;;;;;;6.38;63.4248;103173.6;;;;-74
2023/04/04 07:36:56;;;;;;;;;;;;;;;6.75;63.63281;103173.1;;;;-74
2023/04/04 07:41:56;;;;;;;;;;;;;;;7.01;62.76563;103163.9;;;;-73
2023/04/04 07:46:58;;;;;;;;;;;;;;;7.33;62.83594;103169.7;;;;-74
2023/04/04 07:51:28;;;;;;;4.4;1.9;;;;;;;;;;;;;-74
2023/04/04 07:51:56;;;;;;;;;;;;;;;7.46;62.39063;103158.9;;;;-73
2023/04/04 07:56:58;;;;;;;;;;;;;;;7.75;62.4541;103155.2;;;;-73
2023/04/04 08:01:56;;;;;;;;;;;;;;;8.12;62.06445;103156.5;;;;-74
2023/04/04 08:06:57;;;;;;;;;;;;;;;8.64;61.06543;103153.6;;;;-72
2023/04/04 08:11:56;;;;;;;;;;;;;;;9.49;60.88477;103137.3;;;;-74
2023/04/04 08:16:57;;;;;;;;;;;;;;;10.11;59.4043;103142.2;;;;-73
2023/04/04 08:21:26;;;;;;;3.9;2;;;;;;;;;;;;;-73
2023/04/04 08:22:00;;;;;;;;;;;;;;;10.49;58.89844;103133.5;;;;-73
2023/04/04 08:26:56;;;;;;;;;;;;;;;10.78;58.24707;103140.4;;;;-73
2023/04/04 08:31:59;;;;;;;;;;;;;;;11.05;57.92676;103137;;;;-73
2023/04/04 08:36:59;;;;;;;;;;;;;;;11.46;57.74609;103124.1;;;;-73
2023/04/04 08:42:04;;;;;;;;;;;;;;;11.79;57.32129;103123.5;;;;-73
2023/04/04 08:46:57;;;;;;;;;;;;;;;12.28;56.38965;103123.6;;;;-74
2023/04/04 08:51:30;;;;;;;3.7;1.7;;;;;;;;;;;;;-74
2023/04/04 08:51:59;;;;;;;;;;;;;;;12.69;55.87012;103121.3;;;;-74
2023/04/04 08:56:58;;;;;;;;;;;;;;;12.88;55.11035;103121.2;;;;-72
2023/04/04 09:02:02;;;;;;;;;;;;;;;12.98;55.10059;103125.1;;;;-73
2023/04/04 09:06:56;;;;;;;;;;;;;;;13.28;55.23926;103125;;;;-74
2023/04/04 09:11:56;;;;;;;;;;;;;;;13.81;54.82422;103126.2;;;;-73
2023/04/04 09:16:58;;;;;;;;;;;;;;;14.22;54.36914;103128.4;;;;-72
2023/04/04 09:21:30;;;;;;;4.1;1.6;;;;;;;;;;;;;-73
2023/04/04 09:21:59;;;;;;;;;;;;;;;14.58;53.49023;103131.5;;;;-74
2023/04/04 09:26:57;;;;;;;;;;;;;;;15.02;53.3291;103125;;;;-74
2023/04/04 09:31:56;;;;;;;;;;;;;;;15.34;52.92871;103122.6;;;;-73
2023/04/04 09:36:57;;;;;;;;;;;;;;;15.67;51.96484;103117.3;;;;-74
2023/04/04 09:41:56;;;;;;;;;;;;;;;16.05;50.5957;103114.8;;;;-73
2023/04/04 09:46:59;;;;;;;;;;;;;;;16.24;49.72461;103113.7;;;;-72
2023/04/04 09:51:37;;;;;;;5.3;1.8;;;;;;;;;;;;;-73
2023/04/04 09:51:56;;;;;;;;;;;;;;;16.32;49.03223;103111;;;;-73
2023/04/04 09:56:58;;;;;;;;;;;;;;;16.35;49.20508;103112.1;;;;-73
2023/04/04 10:01:57;;;;;;;;;;;;;;;16.56;47.92578;103114.9;;;;-71
2023/04/04 10:06:57;;;;;;;;;;;;;;;16.77;48.84473;103111.8;;;;-73
2023/04/04 10:12:07;;;;;;;;;;;;;;;17.01;47.07813;103107.1;;;;-73
2023/04/04 10:17:00;;;;;;;;;;;;;;;17.13;47.1377;103105.8;;;;-73
2023/04/04 10:21:33;;;;;;;3.3;1.8;;;;;;;;;;;;;-73
2023/04/04 10:21:57;;;;;;;;;;;;;;;17.25;47.82031;103103.1;;;;-73
2023/04/04 10:26:56;;;;;;;;;;;;;;;17.46;45.57129;103099.1;;;;-74
2023/04/04 10:32:00;;;;;;;;;;;;;;;17.48;46.08398;103097.6;;;;-73
2023/04/04 10:36:57;;;;;;;;;;;;;;;17.5;49.85547;103095.3;;;;-74
2023/04/04 10:41:58;;;;;;;;;;;;;;;17.68;49.94336;103089.1;;;;-74
2023/04/04 10:46:57;;;;;;;;;;;;;;;17.91;53.75879;103089.9;;;;-73
2023/04/04 10:51:36;;;;;;;4.3;1.7;;;;;;;;;;;;;-72
2023/04/04 10:51:57;;;;;;;;;;;;;;;17.88;47.58008;103080;;;;-73
2023/04/04 10:56:59;;;;;;;;;;;;;;;17.97;52.18945;103079.5;;;;-74
2023/04/04 11:01:58;;;;;;;;;;;;;;;18.04;51.14258;103075.1;;;;-72
2023/04/04 11:07:12;;;;;;;;;;;;;;;18.2;54.77051;103074.8;;;;-74
2023/04/04 11:12:07;;;;;;;;;;;;;;;18.13;52.82227;103067.2;;;;-73
2023/04/04 11:16:56;;;;;;;;;;;;;;;18.42;56.56738;103061.6;;;;-74
2023/04/04 11:21:38;;;;;;;4;1.6;;;;;;;;;;;;;-71
2023/04/04 11:21:56;;;;;;;;;;;;;;;18.53;56.07031;103065.8;;;;-69
2023/04/04 11:26:58;;;;;;;;;;;;;;;18.54;55.15234;103065.1;;;;-70
2023/04/04 11:31:56;;;;;;;;;;;;;;;18.44;59.50684;103058.1;;;;-70
2023/04/04 11:36:56;;;;;;;;;;;;;;;18.78;58.1123;103061.4;;;;-66
2023/04/04 11:41:57;;;;;;;;;;;;;;;18.72;59.85156;103052.4;;;;-70
2023/04/04 11:46:57;;;;;;;;;;;;;;;18.63;62.42285;103045.5;;;;-69
2023/04/04 11:51:41;;;;;;;3.8;1.6;;;;;;;;;;;;;-70
2023/04/04 11:51:56;;;;;;;;;;;;;;;18.93;60.86621;103039;;;;-69
2023/04/04 11:56:56;;;;;;;;;;;;;;;18.69;63.10059;103037.6;;;;-73
2023/04/04 12:01:57;;;;;;;;;;;;;;;18.79;62.57129;103032.4;;;;-72
2023/04/04 12:06:59;;;;;;;;;;;;;;;18.66;61.2041;103023.6;;;;-75
2023/04/04 12:12:06;;;;;;;;;;;;;;;18.71;63.1377;103024;;;;-73
2023/04/04 12:16:58;;;;;;;;;;;;;;;18.95;60.18945;103016.4;;;;-73
2023/04/04 12:21:44;;;;;;;3.7;1.9;;;;;;;;;;;;;-72
2023/04/04 12:21:56;;;;;;;;;;;;;;;18.89;61.65527;103011.9;;;;-74
2023/04/04 12:26:57;;;;;;;;;;;;;;;18.73;65.36035;103003.2;;;;-73
2023/04/04 12:31:58;;;;;;;;;;;;;;;19.1;63.11328;102997.1;;;;-72
2023/04/04 12:36:58;;;;;;;;;;;;;;;18.97;67.48047;102996;;;;-72
2023/04/04 12:42:01;;;;;;;;;;;;;;;19.32;63.23535;102995.9;;;;-73
2023/04/04 12:46:59;;;;;;;;;;;;;;;19.3;64.49219;102986.5;;;;-73
2023/04/04 12:51:47;;;;;;;4.7;2.2;;;;;;;;;;;;;-72
2023/04/04 12:51:59;;;;;;;;;;;;;;;19.32;62.90625;102984;;;;-73
2023/04/04 12:57:02;;;;;;;;;;;;;;;19.51;63.2627;102978.6;;;;-73
2023/04/04 13:01:56;;;;;;;;;;;;;;;19.1;64.54199;102967.1;;;;-74
2023/04/04 13:06:57;;;;;;;;;;;;;;;19.62;62.84766;102958.7;;;;-74
2023/04/04 13:12:11;;;;;;;;;;;;;;;19.37;65.55762;102952.3;;;;-73
2023/04/04 13:17:10;;;;;;;;;;;;;;;19.38;67.06543;102946.4;;;;-73
2023/04/04 13:21:53;;;;;;;4.3;2;;;;;;;;;;;;;-74
2023/04/04 13:22:05;;;;;;;;;;;;;;;19.47;66.9541;102940.2;;;;-74
2023/04/04 13:26:58;;;;;;;;;;;;;;;19.51;67.1875;102938.2;;;;-73
2023/04/04 13:31:58;;;;;;;;;;;;;;;19.25;67.91992;102931;;;;-75
2023/04/04 13:36:56;;;;;;;;;;;;;;;19.49;68.29688;102925.9;;;;-74
2023/04/04 13:41:56;;;;;;;;;;;;;;;19.5;66.0752;102920.1;;;;-72
2023/04/04 13:46:59;;;;;;;;;;;;;;;19.32;66.69531;102914.9;;;;-73
2023/04/04 13:51:54;;;;;;;4.2;1.9;;;;;;;;;;;;;-72
2023/04/04 13:52:04;;;;;;;;;;;;;;;19.64;66.43555;102910.2;;;;-72
2023/04/04 13:56:57;;;;;;;;;;;;;;;19.33;65.15332;102904.3;;;;-74
2023/04/04 14:01:57;;;;;;;;;;;;;;;18.82;67.43555;102903;;;;-73
2023/04/04 14:06:56;;;;;;;;;;;;;;;18.62;68.06152;102906;;;;-72
2023/04/04 14:11:56;;;;;;;;;;;;;;;18.5;67.19336;102903.6;;;;-73
2023/04/04 14:16:58;;;;;;;;;;;;;;;18.25;66.93066;102897.8;;;;-72
2023/04/04 14:21:56;;;;;;;;;;;;;;;18.17;67.21094;102897.9;;;;-73
2023/04/04 14:22:06;;;;;;;4.4;1.8;;;;;;;;;;;;;-73
2023/04/04 14:26:56;;;;;;;;;;;;;;;18.01;65.8877;102888.4;;;;-73
2023/04/04 14:31:59;;;;;;;;;;;;;;;17.76;66.63086;102888.8;;;;-73
2023/04/04 14:36:58;;;;;;;;;;;;;;;17.59;65.74512;102885.9;;;;-73
2023/04/04 14:41:58;;;;;;;;;;;;;;;17.36;65.55469;102885.2;;;;-73
2023/04/04 14:46:59;;;;;;;;;;;;;;;17.19;65.58496;102876.5;;;;-74
2023/04/04 14:51:57;;;;;;;;;;;;;;;17.05;65.67773;102872.1;;;;-73
2023/04/04 14:52:07;;;;;;;5.1;2.1;;;;;;;;;;;;;-73
2023/04/04 14:56:58;;;;;;;;;;;;;;;16.79;66.40527;102867.9;;;;-73
2023/04/04 15:01:59;;;;;;;;;;;;;;;16.63;66.52832;102858;;;;-73
2023/04/04 15:07:03;;;;;;;;;;;;;;;16.47;65.5918;102850.1;;;;-73
2023/04/04 15:11:57;;;;;;;;;;;;;;;16.34;68.19434;102846.5;;;;-73
2023/04/04 15:16:57;;;;;;;;;;;;;;;16.17;66.21289;102840.8;;;;-74
2023/04/04 15:21:58;;;;;;;;;;;;;;;16.03;66.95703;102837.4;;;;-74
2023/04/04 15:22:08;;;;;;;4.8;2.2;;;;;;;;;;;;;-74
2023/04/04 15:26:56;;;;;;;;;;;;;;;16;64.85938;102836.7;;;;-73
2023/04/04 15:31:57;;;;;;;;;;;;;;;15.97;63.5918;102827.4;;;;-73
2023/04/04 15:37:02;;;;;;;;;;;;;;;15.91;63.33691;102824.4;;;;-73
2023/04/04 15:41:59;;;;;;;;;;;;;;;15.84;63.32715;102825;;;;-73
2023/04/04 15:46:56;;;;;;;;;;;;;;;15.73;63.42383;102821.1;;;;-73
2023/04/04 15:51:58;;;;;;;;;;;;;;;15.55;63.46484;102819.4;;;;-75
2023/04/04 15:52:08;;;;;;;4.4;2.1;;;;;;;;;;;;;-75
2023/04/04 15:57:00;;;;;;;;;;;;;;;15.38;64.81152;102816.9;;;;-74
2023/04/04 16:01:58;;;;;;;;;;;;;;;15.24;64.4209;102813.7;;;;-74
2023/04/04 16:06:58;;;;;;;;;;;;;;;15.12;64.29004;102805.4;;;;-74
2023/04/04 16:11:59;;;;;;;;;;;;;;;15;64.26172;102806.7;;;;-74
2023/04/04 16:16:58;;;;;;;;;;;;;;;14.92;63.98047;102808.3;;;;-72
2023/04/04 16:21:56;;;;;;;;;;;;;;;14.81;64.38086;102809.6;;;;-74
2023/04/04 16:22:08;;;;;;;5.5;2.2;;;;;;;;;;;;;-75
2023/04/04 16:26:58;;;;;;;;;;;;;;;14.66;64.30273;102808.1;;;;-73
2023/04/04 16:31:56;;;;;;;;;;;;;;;14.51;62.41797;102805.7;;;;-73
2023/04/04 16:36:58;;;;;;;;;;;;;;;14.33;61.94434;102790.5;;;;-74
2023/04/04 16:41:56;;;;;;;;;;;;;;;14.23;62.19727;102794.7;;;;-73
2023/04/04 16:46:56;;;;;;;;;;;;;;;14.13;62.09473;102784.7;;;;-72
2023/04/04 16:51:58;;;;;;;;;;;;;;;14;61.92969;102786.3;;;;-75
2023/04/04 16:52:13;;;;;;;7.6;2.7;;;;;;;;;;;;;-74
2023/04/04 16:56:57;;;;;;;;;;;;;;;13.77;62.01074;102781.2;;;;-73
2023/04/04 17:01:56;;;;;;;;;;;;;;;13.51;62.87012;102777.5;;;;-73
2023/04/04 17:06:56;;;;;;;;;;;;;;;13.24;62.78711;102777.7;;;;-74
2023/04/04 17:11:57;;;;;;;;;;;;;;;13;63.28906;102768.9;;;;-73
2023/04/04 17:16:59;;;;;;;;;;;;;;;12.9;63.6543;102774.7;;;;-72
2023/04/04 17:21:58;;;;;;;;;;;;;;;12.85;61.51074;102762.6;;;;-73
2023/04/04 17:22:12;;;;;;;6.8;3;;;;;;;;;;;;;-73
2023/04/04 17:26:56;;;;;;;;;;;;;;;12.7;62.30664;102762.6;;;;-74
2023/04/04 17:31:58;;;;;;;;;;;;;;;12.53;61.23145;102759.6;;;;-72
2023/04/04 17:37:09;;;;;;;;;;;;;;;12.3;62.27246;102761.4;;;;-74
2023/04/04 17:41:59;;;;;;;;;;;;;;;12.1;62.91309;102755.4;;;;-73
2023/04/04 17:46:56;;;;;;;;;;;;;;;11.89;62.72559;102765.1;;;;-73
2023/04/04 17:51:57;;;;;;;;;;;;;;;11.67;63.26465;102766.9;;;;-74
2023/04/04 17:52:18;;;;;;;6.4;3;;;;;;;;;;;;;-73
2023/04/04 17:56:59;;;;;;;;;;;;;;;11.46;62.54199;102767.1;;;;-74
2023/04/04 18:01:58;;;;;;;;;;;;;;;11.25;63.28027;102774.5;;;;-73
2023/04/04 18:06:59;;;;;;;;;;;;;;;11.04;63.49707;102781.2;;;;-73
2023/04/04 18:11:57;;;;;;;;;;;;;;;10.83;63.38867;102781.5;;;;-74
2023/04/04 18:16:59;;;;;;;;;;;;;;;10.65;64.95215;102787.1;;;;-74
2023/04/04 18:21:58;;;;;;;;;;;;;;;10.44;64.1748;102781.3;;;;-73
2023/04/04 18:26:59;;;;;;;;;;;;;;;10.2;63.76367;102783.1;;;;-73
2023/04/04 18:31:56;;;;;;;;;;;;;;;9.97;64.11816;102783.5;;;;-72
2023/04/04 18:37:00;;;;;;;;;;;;;;;9.75;63.59863;102785.7;;;;-74
2023/04/04 18:41:57;;;;;;;;;;;;;;;9.47;64.52148;102790.3;;;;-74
2023/04/04 18:46:57;;;;;;;;;;;;;;;9.26;64.05762;102796.6;;;;-72
2023/04/04 18:51:59;;;;;;;;;;;;;;;9.01;63.36621;102803.8;;;;-75
2023/04/04 18:52:20;;;;;;;7.6;3.1;;;;;;;;;;;;;-73
2023/04/04 18:57:05;;;;;;;;;;;;;;;8.8;63.67969;102802.7;;;;-73
2023/04/04 19:01:56;;;;;;;;;;;;;;;8.62;63.00098;102807.2;;;;-74
2023/04/04 19:06:59;;;;;;;;;;;;;;;8.45;63.29492;102801.9;;;;-74
2023/04/04 19:11:58;;;;;;;;;;;;;;;8.26;64.09961;102800.3;;;;-73
2023/04/04 19:16:56;;;;;;;;;;;;;;;8.1;63.73145;102798.6;;;;-73
2023/04/04 19:21:56;;;;;;;;;;;;;;;7.95;63.63281;102796.9;;;;-73
2023/04/04 19:22:20;;;;;;;8.8;3.5;;;;;;;;;;;;;-73
2023/04/04 19:26:56;;;;;;;;;;;;;;;7.81;63.71191;102798.5;;;;-74
2023/04/04 19:31:57;;;;;;;;;;;;;;;7.68;63.78027;102798.3;;;;-74
2023/04/04 19:36:57;;;;;;;;;;;;;;;7.6;64.41992;102795.1;;;;-74
2023/04/04 19:42:00;;;;;;;;;;;;;;;7.48;63.98438;102794.1;;;;-74
2023/04/04 19:51:59;;;;;;;;;;;;;;;7.29;64.63965;102778.3;;;;-73
2023/04/04 19:52:20;;;;;;;7.2;3.7;;;;;;;;;;;;;-73
2023/04/04 19:56:58;;;;;;;;;;;;;;;7.16;64.74219;102771.5;;;;-74
2023/04/04 20:02:00;;;;;;;;;;;;;;;7.03;64.55762;102776;;;;-72
2023/04/04 20:06:58;;;;;;;;;;;;;;;6.94;65.17285;102771.5;;;;-73
2023/04/04 20:11:56;;;;;;;;;;;;;;;6.79;64.97266;102765.4;;;;-73
2023/04/04 20:16:58;;;;;;;;;;;;;;;6.68;65.05566;102769.1;;;;-75
2023/04/04 20:21:56;;;;;;;;;;;;;;;6.56;65.15918;102765.2;;;;-73
2023/04/04 20:22:20;;;;;;;7.9;3.5;;;;;;;;;;;;;-73
2023/04/04 20:31:57;;;;;;;;;;;;;;;6.36;65.31641;102764.2;;;;-75
2023/04/04 20:36:58;;;;;;;;;;;;;;;6.25;65.25391;102754.7;;;;-74
2023/04/04 20:41:59;;;;;;;;;;;;;;;6.17;65.36426;102759.6;;;;-75
2023/04/04 20:46:59;;;;;;;;;;;;;;;6.07;65.62402;102758.9;;;;-72
2023/04/04 20:51:58;;;;;;;;;;;;;;;5.99;65.44629;102755.7;;;;-74
2023/04/04 20:52:25;;;;;;;6.5;3.5;;;;;;;;;;;;;-74
2023/04/04 20:56:56;;;;;;;;;;;;;;;5.95;65.70313;102755.6;;;;-74
2023/04/04 21:02:01;;;;;;;;;;;;;;;5.86;66.01953;102753.5;;;;-73
2023/04/04 21:06:59;;;;;;;;;;;;;;;5.79;65.76953;102753.4;;;;-74
2023/04/04 21:12:00;;;;;;;;;;;;;;;5.77;65.80762;102750.5;;;;-74
2023/04/04 21:17:03;;;;;;;;;;;;;;;5.76;65.9502;102746.5;;;;-75
2023/04/04 21:21:56;;;;;;;;;;;;;;;5.75;65.54102;102745.2;;;;-74
2023/04/04 21:22:21;;;;;;;6.7;3.1;;;;;;;;;;;;;-74
2023/04/04 21:26:57;;;;;;;;;;;;;;;5.75;65.91504;102742.1;;;;-74
2023/04/04 21:31:57;;;;;;;;;;;;;;;5.72;65.89941;102741.2;;;;-75
2023/04/04 21:37:00;;;;;;;;;;;;;;;5.7;65.91895;102737.9;;;;-74
2023/04/04 21:42:00;;;;;;;;;;;;;;;5.66;65.86914;102737.9;;;;-74
2023/04/04 21:46:57;;;;;;;;;;;;;;;5.65;66.12988;102737.1;;;;-73
2023/04/04 21:51:58;;;;;;;;;;;;;;;5.61;65.79492;102736.5;;;;-74
2023/04/04 21:52:21;;;;;;;5.8;2.8;;;;;;;;;;;;;-74
2023/04/04 21:56:56;;;;;;;;;;;;;;;5.61;65.88281;102737.1;;;;-73
2023/04/04 22:02:04;;;;;;;;;;;;;;;5.57;65.87793;102732.7;;;;-74
2023/04/04 22:06:57;;;;;;;;;;;;;;;5.53;65.98047;102731.5;;;;-74
2023/04/04 22:12:01;;;;;;;;;;;;;;;5.46;65.94727;102732.8;;;;-75
2023/04/04 22:16:57;;;;;;;;;;;;;;;5.43;65.87695;102735.6;;;;-74
2023/04/04 22:21:58;;;;;;;;;;;;;;;5.37;65.94531;102728.2;;;;-74
2023/04/04 22:22:22;;;;;;;6.2;2.2;;;;;;;;;;;;;-73
2023/04/04 22:26:56;;;;;;;;;;;;;;;5.33;66.09277;102735.2;;;;-72
2023/04/04 22:32:03;;;;;;;;;;;;;;;5.25;66.19141;102726.1;;;;-74
2023/04/04 22:37:02;;;;;;;;;;;;;;;5.19;66.12598;102729;;;;-74
2023/04/04 22:41:57;;;;;;;;;;;;;;;5.12;66.29102;102726.7;;;;-73
2023/04/04 22:47:00;;;;;;;;;;;;;;;5.06;66.20508;102722.3;;;;-73
2023/04/04 22:52:00;;;;;;;;;;;;;;;4.98;66.44531;102721.8;;;;-73
2023/04/04 22:52:29;;;;;;;5;2.2;;;;;;;;;;;;;-74
2023/04/04 22:56:56;;;;;;;;;;;;;;;4.95;66.25488;102723.2;;;;-75
2023/04/04 23:01:56;;;;;;;;;;;;;;;4.87;66.37207;102719.6;;;;-75
2023/04/04 23:06:58;;;;;;;;;;;;;;;4.8;66.42773;102716.2;;;;-73
2023/04/04 23:11:56;;;;;;;;;;;;;;;4.77;66.48828;102709.5;;;;-74
2023/04/04 23:16:57;;;;;;;;;;;;;;;4.75;66.65137;102713.2;;;;-75
2023/04/04 23:21:58;;;;;;;;;;;;;;;4.68;66.50684;102706.1;;;;-73
2023/04/04 23:22:23;;;;;;;5.3;2.2;;;;;;;;;;;;;-75
2023/04/04 23:26:59;;;;;;;;;;;;;;;4.58;66.85449;102705.7;;;;-74
2023/04/04 23:32:05;;;;;;;;;;;;;;;4.53;66.82422;102704.8;;;;-74
2023/04/04 23:37:03;;;;;;;;;;;;;;;4.46;66.81445;102702.3;;;;-73
2023/04/04 23:41:57;;;;;;;;;;;;;;;4.43;66.70996;102698.9;;;;-73
2023/04/04 23:46:56;;;;;;;;;;;;;;;4.37;66.88672;102697.4;;;;-73
2023/04/04 23:51:57;;;;;;;;;;;;;;;4.32;67.16406;102694.7;;;;-74
2023/04/04 23:52:23;;;;;;;5.3;2.4;;;;;;;;;;;;;-74
2023/04/04 23:56:57;;;;;;;;;;;;;;;4.26;66.90234;102697;;;;-74
